createdAt,value
2022-09-30T00:01:32.660Z,10.70
2022-09-30T00:04:01.575Z,10.70
2022-09-30T00:06:31.079Z,10.80
2022-09-30T00:08:59.208Z,10.70
2022-09-30T00:11:28.842Z,10.70
2022-09-30T00:13:58.142Z,10.70
2022-09-30T00:16:28.158Z,10.70
2022-09-30T00:18:58.617Z,10.60
2022-09-30T00:21:28.021Z,10.50
2022-09-30T00:23:56.482Z,10.50
2022-09-30T00:26:25.194Z,10.50
2022-09-30T00:28:53.958Z,10.50
2022-09-30T00:31:23.557Z,10.60
2022-09-30T00:34:06.049Z,10.60
2022-09-30T00:36:36.812Z,10.60
2022-09-30T00:39:05.671Z,10.60
2022-09-30T00:41:33.843Z,10.50
2022-09-30T00:44:01.949Z,10.60
2022-09-30T00:46:38.840Z,10.50
2022-09-30T00:49:15.082Z,10.50
2022-09-30T00:51:48.132Z,10.50
2022-09-30T00:54:18.610Z,10.50
2022-09-30T00:56:50.099Z,10.50
2022-09-30T00:59:21.670Z,10.40
2022-09-30T01:01:50.384Z,10.40
2022-09-30T01:04:21.589Z,10.40
2022-09-30T01:06:51.555Z,10.40
2022-09-30T01:09:20.688Z,10.40
2022-09-30T01:11:49.270Z,10.40
2022-09-30T01:14:21.026Z,10.30
2022-09-30T01:17:00.169Z,10.30
2022-09-30T01:19:48.307Z,10.20
2022-09-30T01:22:41.938Z,10.20
2022-09-30T01:25:37.265Z,10.20
2022-09-30T01:28:24.784Z,10.20
2022-09-30T01:31:15.082Z,10.20
2022-09-30T01:33:51.948Z,10.10
2022-09-30T01:36:30.020Z,10.10
2022-09-30T01:39:06.522Z,10.10
2022-09-30T01:41:52.267Z,10.10
2022-09-30T01:44:31.744Z,10.10
2022-09-30T01:47:06.557Z,10.10
2022-09-30T01:49:42.315Z,10.00
2022-09-30T01:52:16.182Z,10.00
2022-09-30T01:54:51.408Z,10.00
2022-09-30T01:57:23.196Z,10.00
2022-09-30T01:59:56.013Z,10.00
2022-09-30T02:04:59.546Z,10.00
2022-09-30T02:07:34.658Z,10.00
2022-09-30T02:10:06.539Z,9.90
2022-09-30T02:12:39.789Z,9.80
2022-09-30T02:15:11.901Z,9.80
2022-09-30T02:17:48.026Z,9.80
2022-09-30T02:20:18.858Z,9.80
2022-09-30T02:22:50.561Z,9.70
2022-09-30T02:25:21.963Z,9.70
2022-09-30T02:27:53.810Z,9.60
2022-09-30T02:30:21.988Z,9.60
2022-09-30T02:32:54.879Z,9.60
2022-09-30T02:35:27.582Z,9.60
2022-09-30T02:37:58.852Z,9.50
2022-09-30T02:40:32.043Z,9.50
2022-09-30T02:42:59.878Z,9.50
2022-09-30T02:45:29.953Z,9.50
2022-09-30T02:50:40.485Z,9.50
2022-09-30T02:53:21.462Z,9.50
2022-09-30T02:56:14.094Z,9.40
2022-09-30T02:58:43.371Z,9.40
2022-09-30T03:01:13.538Z,9.40
2022-09-30T03:03:45.404Z,9.30
2022-09-30T03:06:13.915Z,9.30
2022-09-30T03:08:41.938Z,9.30
2022-09-30T03:11:15.673Z,9.30
2022-09-30T03:16:48.843Z,9.30
2022-09-30T03:19:35.450Z,9.20
2022-09-30T03:22:19.138Z,9.20
2022-09-30T03:25:00.096Z,9.20
2022-09-30T03:27:33.342Z,9.10
2022-09-30T03:30:05.296Z,9.10
2022-09-30T03:32:46.628Z,9.10
2022-09-30T03:35:22.302Z,9.00
2022-09-30T03:37:58.149Z,9.00
2022-09-30T03:40:35.259Z,9.00
2022-09-30T03:43:09.099Z,9.10
2022-09-30T03:45:40.136Z,9.00
2022-09-30T03:48:12.028Z,9.00
2022-09-30T03:50:43.057Z,9.00
2022-09-30T03:53:12.480Z,9.00
2022-09-30T03:55:50.883Z,9.00
2022-09-30T03:58:22.078Z,9.00
2022-09-30T04:00:53.904Z,9.00
2022-09-30T04:03:23.329Z,9.00
2022-09-30T04:05:52.408Z,9.00
2022-09-30T04:08:20.132Z,9.00
2022-09-30T04:10:47.800Z,9.00
2022-09-30T04:13:15.502Z,9.00
2022-09-30T04:15:43.243Z,9.00
2022-09-30T04:18:10.931Z,9.00
2022-09-30T04:20:40.398Z,8.90
2022-09-30T04:23:09.451Z,8.90
2022-09-30T04:25:37.176Z,8.90
2022-09-30T04:28:04.893Z,8.90
2022-09-30T04:30:33.714Z,8.90
2022-09-30T04:33:01.640Z,8.90
2022-09-30T04:35:30.048Z,8.90
2022-09-30T04:37:57.801Z,8.80
2022-09-30T04:40:26.943Z,8.80
2022-09-30T04:42:58.093Z,8.90
2022-09-30T04:45:25.987Z,8.80
2022-09-30T04:47:53.811Z,8.70
2022-09-30T04:50:21.558Z,8.50
2022-09-30T04:52:49.416Z,8.50
2022-09-30T04:57:47.041Z,8.50
2022-09-30T05:00:14.864Z,8.50
2022-09-30T05:05:12.585Z,8.50
2022-09-30T05:10:11.135Z,8.50
2022-09-30T05:12:40.249Z,8.50
2022-09-30T05:15:10.378Z,8.50
2022-09-30T05:17:38.145Z,8.50
2022-09-30T05:22:38.350Z,8.50
2022-09-30T05:25:07.078Z,8.40
2022-09-30T05:27:35.059Z,8.40
2022-09-30T05:30:02.996Z,8.40
2022-09-30T05:32:32.393Z,8.50
2022-09-30T05:35:03.046Z,8.40
2022-09-30T05:37:30.927Z,8.50
2022-09-30T05:39:59.162Z,8.50
2022-09-30T05:42:26.901Z,8.40
2022-09-30T05:44:54.743Z,8.50
2022-09-30T05:47:23.989Z,8.50
2022-09-30T05:49:56.024Z,8.40
2022-09-30T05:52:24.037Z,8.30
2022-09-30T05:54:51.812Z,8.40
2022-09-30T05:57:19.596Z,8.40
2022-09-30T05:59:47.612Z,8.40
2022-09-30T06:02:15.465Z,8.40
2022-09-30T06:04:43.603Z,8.40
2022-09-30T06:07:13.780Z,8.40
2022-09-30T06:09:41.642Z,8.40
2022-09-30T06:12:10.022Z,8.50
2022-09-30T06:14:37.753Z,8.40
2022-09-30T06:17:06.392Z,8.40
2022-09-30T06:19:34.241Z,8.50
2022-09-30T06:22:02.338Z,8.40
2022-09-30T06:24:31.386Z,8.40
2022-09-30T06:26:59.148Z,8.40
2022-09-30T06:29:27.030Z,8.40
2022-09-30T06:31:54.873Z,8.40
2022-09-30T06:34:22.628Z,8.40
2022-09-30T06:36:50.329Z,8.40
2022-09-30T06:39:19.029Z,8.40
2022-09-30T06:41:48.199Z,8.40
2022-09-30T06:44:15.948Z,8.50
2022-09-30T06:46:53.302Z,8.60
2022-09-30T06:49:22.118Z,8.60
2022-09-30T06:51:51.606Z,8.60
2022-09-30T06:54:20.563Z,8.70
2022-09-30T06:56:52.455Z,8.80
2022-09-30T06:59:20.453Z,8.90
2022-09-30T07:01:48.323Z,8.90
2022-09-30T07:04:16.281Z,8.90
2022-09-30T07:06:44.124Z,8.90
2022-09-30T07:09:12.749Z,8.90
2022-09-30T07:11:40.680Z,8.90
2022-09-30T07:14:10.278Z,8.90
2022-09-30T07:16:38.412Z,8.90
2022-09-30T07:19:08.881Z,9.00
2022-09-30T07:21:36.611Z,9.00
2022-09-30T07:24:05.552Z,9.10
2022-09-30T07:26:33.329Z,9.20
2022-09-30T07:29:01.165Z,9.20
2022-09-30T07:31:33.730Z,9.20
2022-09-30T07:34:02.697Z,9.20
2022-09-30T07:36:33.486Z,9.10
2022-09-30T07:39:05.580Z,9.20
2022-09-30T07:41:36.466Z,9.20
2022-09-30T07:44:06.243Z,9.20
2022-09-30T07:46:38.883Z,9.20
2022-09-30T07:49:09.274Z,9.20
2022-09-30T07:51:39.199Z,9.20
2022-09-30T07:54:09.966Z,9.40
2022-09-30T07:59:28.396Z,9.50
2022-09-30T08:01:57.668Z,9.60
2022-09-30T08:04:27.005Z,9.60
2022-09-30T08:06:56.643Z,9.80
2022-09-30T08:09:27.222Z,9.80
2022-09-30T08:11:55.515Z,9.90
2022-09-30T08:14:26.374Z,10.00
2022-09-30T08:16:55.823Z,10.10
2022-09-30T08:19:26.638Z,10.00
2022-09-30T08:21:55.324Z,10.20
2022-09-30T08:24:24.403Z,10.20
2022-09-30T08:26:52.873Z,10.20
2022-09-30T08:29:42.378Z,10.30
2022-09-30T08:32:08.932Z,10.30
2022-09-30T08:34:38.067Z,10.30
2022-09-30T08:37:09.206Z,10.30
2022-09-30T08:39:37.455Z,10.30
2022-09-30T08:42:35.942Z,10.40
2022-09-30T08:45:14.900Z,10.50
2022-09-30T08:47:52.258Z,10.60
2022-09-30T08:50:32.002Z,10.60
2022-09-30T08:53:04.124Z,10.70
2022-09-30T08:55:39.799Z,10.70
2022-09-30T08:58:15.392Z,10.80
2022-09-30T09:00:44.249Z,10.80
2022-09-30T09:03:14.129Z,10.90
2022-09-30T09:05:57.347Z,11.00
2022-09-30T09:08:34.916Z,11.10
2022-09-30T09:11:07.307Z,11.10
2022-09-30T09:13:46.209Z,11.30
2022-09-30T09:16:22.870Z,11.30
2022-09-30T09:18:59.675Z,11.50
2022-09-30T09:21:51.957Z,11.60
2022-09-30T09:24:23.005Z,11.70
2022-09-30T09:26:52.795Z,11.80
2022-09-30T09:29:28.129Z,11.90
2022-09-30T09:31:58.285Z,12.00
2022-09-30T09:34:27.965Z,12.00
2022-09-30T09:37:11.611Z,12.10
2022-09-30T09:40:04.217Z,12.10
2022-09-30T09:42:47.844Z,12.30
2022-09-30T09:45:24.470Z,12.40
2022-09-30T09:47:52.747Z,12.50
2022-09-30T09:53:04.698Z,12.80
2022-09-30T09:55:32.503Z,12.80
2022-09-30T09:58:08.020Z,13.00
2022-09-30T10:00:53.723Z,13.00
2022-09-30T10:03:24.074Z,13.20
2022-09-30T10:06:02.603Z,13.30
2022-09-30T10:08:33.917Z,13.30
2022-09-30T10:11:04.401Z,13.40
2022-09-30T10:13:34.031Z,13.60
2022-09-30T10:16:03.137Z,13.70
2022-09-30T10:18:34.366Z,13.70
2022-09-30T10:21:06.417Z,13.80
2022-09-30T10:23:39.459Z,13.90
2022-09-30T10:26:19.098Z,13.90
2022-09-30T10:28:51.304Z,14.00
2022-09-30T10:31:24.963Z,14.10
2022-09-30T10:34:04.140Z,14.20
2022-09-30T10:36:34.780Z,14.30
2022-09-30T10:39:07.408Z,14.50
2022-09-30T10:41:37.180Z,14.50
2022-09-30T10:44:08.705Z,14.60
2022-09-30T10:46:39.557Z,14.60
2022-09-30T10:49:11.698Z,14.60
2022-09-30T10:51:40.450Z,14.70
2022-09-30T10:54:47.536Z,14.90
2022-09-30T10:57:20.517Z,14.90
2022-09-30T10:59:48.924Z,14.90
2022-09-30T11:02:24.514Z,15.00
2022-09-30T11:05:07.709Z,15.00
2022-09-30T11:07:43.632Z,15.10
2022-09-30T11:10:28.175Z,15.10
2022-09-30T11:13:02.573Z,15.30
2022-09-30T11:15:34.725Z,15.30
2022-09-30T11:18:08.400Z,15.40
2022-09-30T11:20:42.651Z,15.40
2022-09-30T11:23:21.325Z,15.50
2022-09-30T11:25:57.973Z,15.50
2022-09-30T11:28:50.052Z,15.60
2022-09-30T11:31:28.817Z,15.60
2022-09-30T11:34:16.467Z,15.50
2022-09-30T11:36:54.123Z,15.30
2022-09-30T11:39:44.310Z,15.30
2022-09-30T11:42:20.490Z,15.30
2022-09-30T11:44:52.628Z,15.40
2022-09-30T11:47:33.518Z,15.50
2022-09-30T11:50:18.892Z,15.60
2022-09-30T11:52:57.026Z,15.80
2022-09-30T11:55:44.582Z,15.80
2022-09-30T11:58:39.877Z,15.80
2022-09-30T12:01:18.251Z,15.90
2022-09-30T12:03:57.920Z,16.20
2022-09-30T12:06:33.797Z,16.30
2022-09-30T12:11:39.840Z,16.10
2022-09-30T12:14:16.938Z,16.00
2022-09-30T12:16:47.950Z,16.10
2022-09-30T12:19:24.598Z,16.10
2022-09-30T12:21:58.240Z,16.10
2022-09-30T12:24:32.518Z,16.00
2022-09-30T12:27:01.931Z,15.90
2022-09-30T12:29:53.493Z,15.90
2022-09-30T12:32:42.056Z,15.80
2022-09-30T12:35:31.032Z,15.70
2022-09-30T12:38:13.001Z,15.70
2022-09-30T12:40:53.118Z,15.80
2022-09-30T12:43:56.225Z,16.10
2022-09-30T12:46:46.548Z,16.40
2022-09-30T12:49:19.853Z,16.40
2022-09-30T12:51:54.222Z,16.50
2022-09-30T12:54:26.521Z,16.80
2022-09-30T12:56:59.251Z,16.80
2022-09-30T12:59:30.413Z,17.00
2022-09-30T13:02:00.556Z,17.00
2022-09-30T13:04:34.340Z,17.00
2022-09-30T13:07:23.233Z,17.00
2022-09-30T13:10:15.845Z,17.10
2022-09-30T13:12:45.818Z,17.20
2022-09-30T13:15:39.297Z,17.20
2022-09-30T13:18:45.056Z,17.30
2022-09-30T13:23:50.842Z,17.20
2022-09-30T13:26:45.525Z,17.50
2022-09-30T13:29:50.340Z,17.20
2022-09-30T13:32:37.253Z,17.30
2022-09-30T13:35:31.585Z,17.30
2022-09-30T13:38:20.114Z,17.30
2022-09-30T13:41:01.821Z,17.40
2022-09-30T13:43:35.821Z,17.40
2022-09-30T13:46:12.460Z,17.40
2022-09-30T13:48:46.138Z,17.40
2022-09-30T13:51:16.639Z,17.60
2022-09-30T13:53:51.097Z,17.30
2022-09-30T13:56:22.537Z,17.10
2022-09-30T13:59:21.455Z,16.90
2022-09-30T14:02:02.975Z,16.90
2022-09-30T14:04:52.774Z,16.90
2022-09-30T14:07:38.019Z,17.00
2022-09-30T14:10:28.162Z,17.10
2022-09-30T14:13:12.755Z,17.30
2022-09-30T14:15:57.447Z,17.40
2022-09-30T14:18:46.386Z,17.30
2022-09-30T14:21:34.795Z,17.30
2022-09-30T14:24:04.707Z,17.20
2022-09-30T14:29:17.265Z,17.20
2022-09-30T14:31:46.179Z,17.10
2022-09-30T14:34:15.338Z,17.30
2022-09-30T14:36:43.909Z,17.30
2022-09-30T14:39:19.097Z,17.40
2022-09-30T14:41:55.790Z,17.50
2022-09-30T14:44:26.872Z,17.50
2022-09-30T14:47:00.850Z,17.40
2022-09-30T14:49:34.669Z,17.50
2022-09-30T14:52:03.865Z,17.50
2022-09-30T14:54:33.151Z,17.60
2022-09-30T14:57:04.405Z,17.60
2022-09-30T14:59:34.506Z,17.50
2022-09-30T15:02:05.194Z,17.60
2022-09-30T15:04:36.466Z,17.60
2022-09-30T15:07:07.134Z,17.70
2022-09-30T15:09:37.549Z,17.70
2022-09-30T15:12:11.274Z,17.60
2022-09-30T15:14:47.831Z,17.60
2022-09-30T15:17:20.225Z,17.60
2022-09-30T15:19:50.406Z,17.60
2022-09-30T15:22:19.581Z,17.60
2022-09-30T15:24:49.296Z,17.70
2022-09-30T15:27:23.164Z,17.70
2022-09-30T15:29:57.880Z,17.80
2022-09-30T15:32:27.940Z,17.90
2022-09-30T15:34:58.458Z,17.80
2022-09-30T15:37:33.333Z,17.90
2022-09-30T15:40:16.510Z,17.90
2022-09-30T15:42:54.089Z,17.90
2022-09-30T15:45:34.984Z,18.00
2022-09-30T15:48:06.678Z,19.70
2022-09-30T15:50:39.942Z,18.10
2022-09-30T15:53:18.235Z,17.90
2022-09-30T15:55:50.313Z,17.80
2022-09-30T15:58:55.257Z,17.90
2022-09-30T16:01:25.174Z,17.90
2022-09-30T16:03:56.374Z,18.10
2022-09-30T16:06:31.074Z,18.10
2022-09-30T16:09:01.398Z,18.10
2022-09-30T16:11:32.447Z,18.10
2022-09-30T16:14:05.433Z,17.90
2022-09-30T16:16:36.296Z,17.80
2022-09-30T16:19:05.225Z,17.70
2022-09-30T16:21:45.049Z,17.70
2022-09-30T16:24:47.509Z,17.50
2022-09-30T16:27:25.962Z,17.50
2022-09-30T16:29:55.521Z,17.30
2022-09-30T16:32:23.780Z,17.30
2022-09-30T16:34:51.756Z,17.20
2022-09-30T16:37:21.449Z,17.20
2022-09-30T16:39:50.162Z,17.10
2022-09-30T16:42:19.280Z,17.00
2022-09-30T16:44:47.207Z,17.00
2022-09-30T16:47:17.944Z,16.80
2022-09-30T16:49:47.412Z,16.70
2022-09-30T16:52:15.537Z,16.70
2022-09-30T16:54:43.752Z,16.70
2022-09-30T16:57:14.907Z,16.60
2022-09-30T16:59:42.915Z,16.50
2022-09-30T17:02:16.495Z,16.40
2022-09-30T17:04:45.579Z,16.30
2022-09-30T17:07:15.073Z,16.30
2022-09-30T17:09:44.529Z,16.20
2022-09-30T17:12:13.247Z,16.20
2022-09-30T17:14:43.282Z,16.10
2022-09-30T17:17:13.656Z,16.00
2022-09-30T17:19:43.443Z,15.80
2022-09-30T17:22:11.325Z,15.80
2022-09-30T17:24:39.126Z,15.70
2022-09-30T17:27:07.693Z,15.60
2022-09-30T17:29:41.778Z,15.50
2022-09-30T17:32:10.051Z,15.50
2022-09-30T17:34:37.925Z,15.40
2022-09-30T17:39:35.885Z,15.30
2022-09-30T17:42:21.255Z,15.30
2022-09-30T17:44:49.150Z,15.20
2022-09-30T17:47:16.920Z,15.20
2022-09-30T17:49:44.827Z,15.00
2022-09-30T17:52:15.487Z,15.00
2022-09-30T17:54:43.312Z,15.00
2022-09-30T17:57:11.194Z,15.00
2022-09-30T17:59:38.982Z,15.00
2022-09-30T18:02:06.837Z,15.00
2022-09-30T18:04:36.499Z,14.90
2022-09-30T18:07:04.381Z,14.90
2022-09-30T18:09:33.887Z,14.90
2022-09-30T18:12:02.114Z,14.80
2022-09-30T18:14:35.076Z,14.70
2022-09-30T18:17:03.938Z,14.70
2022-09-30T18:19:32.011Z,14.70
2022-09-30T18:21:59.938Z,14.70
2022-09-30T18:24:45.594Z,14.60
2022-09-30T18:27:14.985Z,14.50
2022-09-30T18:29:42.849Z,14.50
2022-09-30T18:32:10.740Z,14.50
2022-09-30T18:34:38.680Z,14.50
2022-09-30T18:37:06.656Z,14.60
2022-09-30T18:39:35.446Z,14.50
2022-09-30T18:42:04.747Z,14.50
2022-09-30T18:44:37.421Z,14.50
2022-09-30T18:47:05.661Z,14.40
2022-09-30T18:49:33.594Z,14.40
2022-09-30T18:52:03.058Z,14.40
2022-09-30T18:54:30.877Z,14.40
2022-09-30T18:56:59.653Z,14.40
2022-09-30T18:59:27.585Z,14.40
2022-09-30T19:01:58.403Z,14.40
2022-09-30T19:04:27.046Z,14.40
2022-09-30T19:06:54.934Z,14.30
2022-09-30T19:09:24.431Z,14.20
2022-09-30T19:11:52.854Z,14.20
2022-09-30T19:14:20.923Z,14.10
2022-09-30T19:16:49.143Z,14.10
2022-09-30T19:19:20.394Z,14.00
2022-09-30T19:21:49.866Z,14.00
2022-09-30T19:24:17.994Z,14.00
2022-09-30T19:26:47.969Z,14.00
2022-09-30T19:29:18.348Z,13.90
2022-09-30T19:31:46.557Z,13.90
2022-09-30T19:34:27.517Z,13.80
2022-09-30T19:36:59.815Z,13.80
2022-09-30T19:39:41.357Z,13.80
2022-09-30T19:42:15.024Z,13.70
2022-09-30T19:44:42.910Z,13.70
2022-09-30T19:47:11.294Z,13.80
2022-09-30T19:49:39.351Z,13.80
2022-09-30T19:52:17.953Z,13.80
2022-09-30T19:54:51.895Z,13.80
2022-09-30T19:57:19.662Z,13.80
2022-09-30T19:59:47.428Z,13.60
2022-09-30T20:02:15.232Z,13.60
2022-09-30T20:04:45.292Z,13.50
2022-09-30T20:09:49.107Z,13.40
2022-09-30T20:12:17.225Z,13.30
2022-09-30T20:15:00.967Z,13.20
2022-09-30T20:17:29.432Z,13.20
2022-09-30T20:22:45.285Z,13.10
2022-09-30T20:27:49.837Z,13.00
2022-09-30T20:30:22.059Z,13.00
2022-09-30T20:32:51.292Z,13.00
2022-09-30T20:35:22.287Z,12.90
2022-09-30T20:40:21.826Z,13.00
2022-09-30T20:42:50.427Z,13.00
2022-09-30T20:45:18.343Z,12.90
2022-09-30T20:47:47.397Z,12.90
2022-09-30T20:50:34.702Z,12.90
2022-09-30T20:53:08.494Z,12.90
2022-09-30T20:55:37.961Z,12.90
2022-09-30T20:58:07.009Z,12.90
2022-09-30T21:00:37.702Z,13.00
2022-09-30T21:03:05.508Z,13.00
2022-09-30T21:05:33.552Z,13.00
2022-09-30T21:08:03.181Z,13.10
2022-09-30T21:13:01.183Z,13.00
2022-09-30T21:15:31.152Z,13.00
2022-09-30T21:17:59.294Z,13.00
2022-09-30T21:20:27.101Z,12.90
2022-09-30T21:22:55.065Z,12.90
2022-09-30T21:25:23.104Z,12.90
2022-09-30T21:27:52.843Z,12.90
2022-09-30T21:30:20.617Z,12.80
2022-09-30T21:35:17.432Z,12.80
2022-09-30T21:37:45.201Z,12.90
2022-09-30T21:40:13.084Z,12.80
2022-09-30T21:42:40.842Z,12.80
2022-09-30T21:45:11.095Z,12.70
2022-09-30T21:47:38.831Z,12.70
2022-09-30T21:50:07.655Z,12.60
2022-09-30T21:52:37.996Z,12.60
2022-09-30T21:55:07.035Z,12.60
2022-09-30T21:57:34.906Z,12.50
2022-09-30T22:00:03.482Z,12.50
2022-09-30T22:02:33.045Z,12.50
2022-09-30T22:05:00.904Z,12.50
2022-09-30T22:07:28.792Z,12.40
2022-09-30T22:09:56.554Z,12.40
2022-09-30T22:12:24.266Z,12.40
2022-09-30T22:14:51.960Z,12.40
2022-09-30T22:17:19.716Z,12.30
2022-09-30T22:19:48.782Z,12.40
2022-09-30T22:22:16.480Z,12.40
2022-09-30T22:24:44.223Z,12.20
2022-09-30T22:27:14.060Z,12.20
2022-09-30T22:29:41.867Z,12.10
2022-09-30T22:32:09.638Z,12.10
2022-09-30T22:34:54.786Z,12.10
2022-09-30T22:37:41.502Z,12.00
2022-09-30T22:40:09.730Z,12.00
2022-09-30T22:42:37.740Z,12.00
2022-09-30T22:45:06.268Z,12.00
2022-09-30T22:47:33.983Z,11.90
2022-09-30T22:50:01.694Z,11.90
2022-09-30T22:52:31.947Z,11.90
2022-09-30T22:54:59.722Z,12.00
2022-09-30T22:57:27.454Z,11.90
2022-09-30T22:59:58.848Z,11.90
2022-09-30T23:02:26.902Z,11.90
2022-09-30T23:04:54.606Z,11.90
2022-09-30T23:07:22.412Z,11.90
2022-09-30T23:09:51.446Z,11.80
2022-09-30T23:12:19.147Z,11.80
2022-09-30T23:14:46.863Z,11.80
2022-09-30T23:17:14.609Z,11.70
2022-09-30T23:19:42.451Z,11.50
2022-09-30T23:22:10.972Z,11.40
2022-09-30T23:27:08.287Z,11.30
2022-09-30T23:29:36.078Z,11.30
2022-09-30T23:32:03.911Z,11.30
2022-09-30T23:34:31.697Z,11.20
2022-09-30T23:36:59.423Z,11.30
2022-09-30T23:39:27.175Z,11.30
2022-09-30T23:41:56.267Z,11.40
2022-09-30T23:44:28.452Z,11.40
2022-09-30T23:47:13.492Z,11.40
2022-09-30T23:49:43.040Z,11.40
2022-09-30T23:52:13.424Z,11.40
2022-09-30T23:54:41.403Z,11.50
2022-09-30T23:57:10.406Z,11.40
2022-09-30T23:59:39.631Z,11.40
